Time;durP1;ratioP1;P1;durP2;ratioP2;P2;SDS_P1;SDS_P2;PMS_P1;PMS_P2;Temp;Humidity;BMP_temperature;BMP_pressure;BME280_temperature;BME280_humidity;BME280_pressure;Samples;Min_cycle;Max_cycle;Signal;HPM_P1;HPM_P2
2022/04/14 00:00:20;;;;;;;;;;;;;;;;;;5115759;28;19912;-43
2022/04/14 00:02:45;;;;;;;;;;;;;;;;;;5115844;28;19912;-43
2022/04/14 00:05:10;;;;;;;;;;;;;;;;;;5116019;28;19912;-43
2022/04/14 00:07:36;;;;;;;;;;;;;;;;;;5115736;28;20049;-43
2022/04/14 00:10:02;;;;;;;;;;;;;;;;;;5115642;28;20333;-43
2022/04/14 00:12:27;;;;;;;;;;;;;;;;;;5116072;28;20016;-43
2022/04/14 00:14:52;;;;;;;;;;;;;;;;;;5097331;28;20439;-42
2022/04/14 00:17:17;;;;;;;;;;;;;;;;;;5115762;28;20366;-43
2022/04/14 00:19:42;;;;;;;;;;;;;;;;;;5110321;28;20003;-44
2022/04/14 00:22:07;;;;;;;;;;;;;;;;;;5113999;28;19919;-44
2022/04/14 00:24:32;;;;;;;;;;;;;;;;;;5115362;28;20422;-43
2022/04/14 00:26:57;;;;;;;;;;;;;;;;;;5115664;28;19908;-44
2022/04/14 00:29:23;;;;;;;;;;;;;;;;;;5115311;28;19915;-43
2022/04/14 00:31:48;;;;;;;;;;;;;;;;;;5115402;28;20294;-44
2022/04/14 00:34:13;;;;;;;;;;;;;;;;;;5115285;28;19915;-43
2022/04/14 00:36:38;;;;;;;;;;;;;;;;;;5115289;28;19927;-44
2022/04/14 00:39:03;;;;;;;;;;;;;;;;;;5115614;28;20346;-44
2022/04/14 00:41:28;;;;;;;;;;;;;;;;;;5115951;28;19916;-43
2022/04/14 00:43:53;;;;;;;;;;;;;;;;;;5115689;28;19908;-43
2022/04/14 00:46:18;;;;;;;;;;;;;;;;;;5115381;28;19914;-44
2022/04/14 00:48:44;;;;;;;;;;;;;;;;;;5115508;28;20330;-45
2022/04/14 00:51:09;;;;;;;;;;;;;;;;;;5115455;28;20486;-44
2022/04/14 00:53:34;;;;;;;;;;;;;;;;;;5115465;28;19907;-44
2022/04/14 00:55:59;;;;;;;;;;;;;;;;;;5115701;28;19994;-43
2022/04/14 00:58:24;;;;;;;;;;;;;;;;;;5115396;28;19960;-44
2022/04/14 01:00:49;;;;;;;;;;;;;;;;;;5115484;28;19911;-44
2022/04/14 01:03:14;;;;;;;;;;;;;;;;;;5115444;28;20479;-44
2022/04/14 01:05:40;;;;;;;;;;;;;;;;;;5115145;28;19915;-44
2022/04/14 01:08:05;;;;;;;;;;;;;;;;;;5115475;28;19912;-44
2022/04/14 01:10:30;;;;;;;;;;;;;;;;;;5097043;28;20362;-44
2022/04/14 01:12:55;;;;;;;;;;;;;;;;;;5115195;28;19908;-44
2022/04/14 01:15:21;;;;;;;;;;;;;;;;;;5115169;28;19907;-45
2022/04/14 01:17:46;;;;;;;;;;;;;;;;;;5115126;28;19928;-45
2022/04/14 01:20:11;;;;;;;;;;;;;;;;;;5114958;28;19915;-44
2022/04/14 01:22:36;;;;;;;;;;;;;;;;;;5096988;28;19968;-44
2022/04/14 01:25:01;;;;;;;;;;;;;;;;;;5115218;28;20354;-44
2022/04/14 01:27:26;;;;;;;;;;;;;;;;;;5096954;28;19964;-44
2022/04/14 01:29:52;;;;;;;;;;;;;;;;;;5117560;28;19990;-44
2022/04/14 01:32:17;;;;;;;;;;;;;;;;;;5118734;28;19920;-45
2022/04/14 01:34:42;;;;;;;;;;;;;;;;;;5119048;28;20266;-44
2022/04/14 01:37:07;;;;;;;;;;;;;;;;;;5118589;28;19924;-44
2022/04/14 01:39:32;;;;;;;;;;;;;;;;;;5118753;28;19957;-44
2022/04/14 01:41:58;;;;;;;;;;;;;;;;;;5118388;28;20312;-44
2022/04/14 01:44:23;;;;;;;;;;;;;;;;;;5118660;28;19934;-45
2022/04/14 01:46:48;;;;;;;;;;;;;;;;;;5118269;28;20006;-43
2022/04/14 01:49:13;;;;;;;;;;;;;;;;;;5118472;28;20282;-45
2022/04/14 01:51:38;;;;;;;;;;;;;;;;;;5118183;28;19907;-45
2022/04/14 01:54:03;;;;;;;;;;;;;;;;;;5118335;28;20347;-44
2022/04/14 01:56:28;;;;;;;;;;;;;;;;;;5117660;28;19919;-44
2022/04/14 01:58:54;;;;;;;;;;;;;;;;;;5118344;28;19915;-45
2022/04/14 02:01:19;;;;;;;;;;;;;;;;;;5118028;28;20382;-44
2022/04/14 02:03:44;;;;;;;;;;;;;;;;;;5118372;28;19907;-44
2022/04/14 02:06:09;;;;;;;;;;;;;;;;;;5117987;28;19918;-43
2022/04/14 02:08:34;;;;;;;;;;;;;;;;;;5118209;28;19950;-45
2022/04/14 02:10:59;;;;;;;;;;;;;;;;;;5099952;28;20346;-43
2022/04/14 02:13:24;;;;;;;;;;;;;;;;;;5118357;28;19908;-44
2022/04/14 02:15:49;;;;;;;;;;;;;;;;;;5118077;28;20362;-44
2022/04/14 02:18:14;;;;;;;;;;;;;;;;;;5117898;28;20290;-44
2022/04/14 02:20:40;;;;;;;;;;;;;;;;;;5117869;28;19912;-45
2022/04/14 02:23:05;;;;;;;;;;;;;;;;;;5117918;28;19908;-43
2022/04/14 02:25:30;;;;;;;;;;;;;;;;;;5117884;28;19908;-44
2022/04/14 02:27:55;;;;;;;;;;;;;;;;;;5117482;28;19990;-44
2022/04/14 02:30:20;;;;;;;;;;;;;;;;;;5118015;28;19930;-44
2022/04/14 02:32:45;;;;;;;;;;;;;;;;;;5117536;28;19918;-44
2022/04/14 02:35:10;;;;;;;;;;;;;;;;;;5117490;28;20320;-44
2022/04/14 02:37:35;;;;;;;;;;;;;;;;;;5117175;28;20423;-44
2022/04/14 02:40:01;;;;;;;;;;;;;;;;;;5116832;28;20022;-45
2022/04/14 02:42:26;;;;;;;;;;;;;;;;;;5116826;28;19971;-44
2022/04/14 02:44:51;;;;;;;;;;;;;;;;;;5117228;28;20010;-44
2022/04/14 02:47:16;;;;;;;;;;;;;;;;;;5117278;28;19908;-43
2022/04/14 02:49:41;;;;;;;;;;;;;;;;;;5117323;28;19908;-45
2022/04/14 02:52:06;;;;;;;;;;;;;;;;;;5117274;28;19914;-44
2022/04/14 02:54:37;;;;;;;;;;;;;;;;;;5117309;28;19914;-43
2022/04/14 02:57:02;;;;;;;;;;;;;;;;;;5117166;28;20316;-43
2022/04/14 02:59:27;;;;;;;;;;;;;;;;;;5117062;28;19908;-44
2022/04/14 03:01:52;;;;;;;;;;;;;;;;;;5117233;28;19911;-44
2022/04/14 03:04:17;;;;;;;;;;;;;;;;;;5117065;28;19908;-44
2022/04/14 03:06:42;;;;;;;;;;;;;;;;;;5117157;28;20385;-44
2022/04/14 03:09:08;;;;;;;;;;;;;;;;;;5117057;28;20027;-44
2022/04/14 03:11:33;;;;;;;;;;;;;;;;;;5098581;28;19908;-44
2022/04/14 03:13:58;;;;;;;;;;;;;;;;;;5116759;28;20002;-44
2022/04/14 03:16:23;;;;;;;;;;;;;;;;;;5116790;28;19915;-44
2022/04/14 03:18:48;;;;;;;;;;;;;;;;;;5116515;28;19912;-44
2022/04/14 03:21:13;;;;;;;;;;;;;;;;;;5116990;28;19913;-43
2022/04/14 03:23:39;;;;;;;;;;;;;;;;;;5116770;28;19908;-44
2022/04/14 03:26:04;;;;;;;;;;;;;;;;;;5098507;28;19962;-44
2022/04/14 03:28:29;;;;;;;;;;;;;;;;;;5116508;28;20389;-44
2022/04/14 03:30:54;;;;;;;;;;;;;;;;;;5116513;28;19964;-44
2022/04/14 03:33:19;;;;;;;;;;;;;;;;;;5116534;28;19908;-43
2022/04/14 03:35:45;;;;;;;;;;;;;;;;;;5116065;28;19916;-43
2022/04/14 03:38:10;;;;;;;;;;;;;;;;;;5116324;28;19956;-43
2022/04/14 03:40:35;;;;;;;;;;;;;;;;;;5115870;28;19912;-44
2022/04/14 03:43:00;;;;;;;;;;;;;;;;;;5116642;28;20377;-44
2022/04/14 03:45:25;;;;;;;;;;;;;;;;;;5116410;28;20056;-44
2022/04/14 03:47:51;;;;;;;;;;;;;;;;;;5116267;28;19918;-44
2022/04/14 03:50:16;;;;;;;;;;;;;;;;;;5116146;28;19947;-43
2022/04/14 03:52:41;;;;;;;;;;;;;;;;;;5116242;28;19907;-44
2022/04/14 03:55:06;;;;;;;;;;;;;;;;;;5116319;28;19908;-43
2022/04/14 03:57:31;;;;;;;;;;;;;;;;;;5116392;28;19914;-44
2022/04/14 03:59:56;;;;;;;;;;;;;;;;;;5116627;28;20354;-43
2022/04/14 04:02:21;;;;;;;;;;;;;;;;;;5116204;28;19915;-44
2022/04/14 04:04:46;;;;;;;;;;;;;;;;;;5115998;28;19908;-44
2022/04/14 04:07:12;;;;;;;;;;;;;;;;;;5115907;28;20031;-45
2022/04/14 04:09:38;;;;;;;;;;;;;;;;;;5115948;28;19908;-43
2022/04/14 04:12:03;;;;;;;;;;;;;;;;;;5115945;28;19908;-44
2022/04/14 04:14:29;;;;;;;;;;;;;;;;;;5116050;28;19919;-44
2022/04/14 04:16:54;;;;;;;;;;;;;;;;;;5116181;28;19912;-44
2022/04/14 04:19:19;;;;;;;;;;;;;;;;;;5115856;28;19918;-45
2022/04/14 04:21:44;;;;;;;;;;;;;;;;;;5115692;28;19912;-43
2022/04/14 04:24:09;;;;;;;;;;;;;;;;;;5115623;28;19908;-43
2022/04/14 04:26:34;;;;;;;;;;;;;;;;;;5115767;28;19909;-44
2022/04/14 04:28:59;;;;;;;;;;;;;;;;;;5115924;28;19908;-45
2022/04/14 04:31:24;;;;;;;;;;;;;;;;;;5116414;28;19907;-44
2022/04/14 04:33:51;;;;;;;;;;;;;;;;;;5115755;28;19908;-44
2022/04/14 04:36:16;;;;;;;;;;;;;;;;;;5115527;28;19927;-44
2022/04/14 04:38:41;;;;;;;;;;;;;;;;;;5115878;28;20354;-44
2022/04/14 04:41:06;;;;;;;;;;;;;;;;;;5115952;28;19919;-44
2022/04/14 04:43:31;;;;;;;;;;;;;;;;;;5115749;28;19931;-44
2022/04/14 04:45:56;;;;;;;;;;;;;;;;;;5115715;28;19911;-43
2022/04/14 04:48:21;;;;;;;;;;;;;;;;;;5115819;28;19908;-43
2022/04/14 04:50:48;;;;;;;;;;;;;;;;;;5115964;28;19981;-43
2022/04/14 04:53:13;;;;;;;;;;;;;;;;;;5115754;28;19975;-43
2022/04/14 04:55:38;;;;;;;;;;;;;;;;;;5115689;28;19954;-44
2022/04/14 04:58:04;;;;;;;;;;;;;;;;;;5115660;28;20011;-43
2022/04/14 05:00:29;;;;;;;;;;;;;;;;;;5115502;28;19922;-44
2022/04/14 05:02:54;;;;;;;;;;;;;;;;;;5116290;28;19945;-44
2022/04/14 05:05:22;;;;;;;;;;;;;;;;;;5118739;28;19908;-44
2022/04/14 05:07:47;;;;;;;;;;;;;;;;;;5119123;28;19915;-44
2022/04/14 05:10:12;;;;;;;;;;;;;;;;;;5118680;28;19907;-44
2022/04/14 05:12:37;;;;;;;;;;;;;;;;;;5119114;28;19908;-44
2022/04/14 05:15:02;;;;;;;;;;;;;;;;;;5101627;28;19908;-44
2022/04/14 05:17:28;;;;;;;;;;;;;;;;;;5119399;28;19908;-44
2022/04/14 05:19:53;;;;;;;;;;;;;;;;;;5118792;28;20298;-44
2022/04/14 05:22:18;;;;;;;;;;;;;;;;;;5118796;28;19935;-43
2022/04/14 05:24:43;;;;;;;;;;;;;;;;;;5114685;28;19938;-44
2022/04/14 05:27:08;;;;;;;;;;;;;;;;;;5113316;28;19939;-44
2022/04/14 05:29:35;;;;;;;;;;;;;;;;;;5110643;28;20022;-43
2022/04/14 05:32:00;;;;;;;;;;;;;;;;;;5092813;28;19973;-44
2022/04/14 05:34:25;;;;;;;;;;;;;;;;;;5094709;28;19916;-46
2022/04/14 05:36:50;;;;;;;;;;;;;;;;;;5105612;28;20109;-47
2022/04/14 05:39:15;;;;;;;;;;;;;;;;;;5106160;28;19963;-46
2022/04/14 05:41:41;;;;;;;;;;;;;;;;;;5090956;28;20022;-46
2022/04/14 05:44:06;;;;;;;;;;;;;;;;;;5098930;27;19912;-46
2022/04/14 05:46:31;;;;;;;;;;;;;;;;;;5101473;28;19920;-46
2022/04/14 05:48:56;;;;;;;;;;;;;;;;;;5089014;28;20343;-45
2022/04/14 05:51:22;;;;;;;;;;;;;;;;;;5083479;28;19956;-43
2022/04/14 05:53:50;;;;;;;;;;;;;;;;;;5097405;28;19962;-45
2022/04/14 05:56:17;;;;;;;;;;;;;;;;;;5092798;28;20038;-45
2022/04/14 05:58:42;;;;;;;;;;;;;;;;;;5094798;27;19912;-46
2022/04/14 06:01:07;;;;;;;;;;;;;;;;;;5076290;28;19930;-45
2022/04/14 06:03:32;;;;;;;;;;;;;;;;;;5078763;28;19931;-46
2022/04/14 06:05:57;;;;;;;;;;;;;;;;;;5082865;28;19966;-46
2022/04/14 06:08:22;;;;;;;;;;;;;;;;;;5077220;27;20413;-48
2022/04/14 06:10:47;;;;;;;;;;;;;;;;;;5067200;27;19959;-46
2022/04/14 06:13:12;;;;;;;;;;;;;;;;;;5059042;27;19926;-45
2022/04/14 06:15:37;;;;;;;;;;;;;;;;;;5010516;28;20051;-45
2022/04/14 06:18:02;;;;;;;;;;;;;;;;;;4966349;27;19919;-47
2022/04/14 06:20:28;;;;;;;;;;;;;;;;;;4881622;28;19923;-47
2022/04/14 06:22:55;;;;;;;;;;;;;;;;;;4836307;28;22189;-49
2022/04/14 06:25:22;;;;;;;;;;;;;;;;;;4792241;28;20009;-47
2022/04/14 06:27:47;;;;;;;;;;;;;;;;;;4789253;27;22244;-46
2022/04/14 06:30:12;;;;;;;;;;;;;;;;;;4769809;27;21910;-46
2022/04/14 06:32:37;;;;;;;;;;;;;;;;;;4816074;27;19920;-48
2022/04/14 06:35:03;;;;;;;;;;;;;;;;;;4883487;27;24083;-48
2022/04/14 06:37:28;;;;;;;;;;;;;;;;;;4870769;27;24627;-46
2022/04/14 06:39:53;;;;;;;;;;;;;;;;;;4905544;28;20000;-45
2022/04/14 06:42:18;;;;;;;;;;;;;;;;;;4923294;28;19996;-46
2022/04/14 06:44:43;;;;;;;;;;;;;;;;;;4928824;27;19960;-46
2022/04/14 06:47:08;;;;;;;;;;;;;;;;;;4920726;28;19920;-46
2022/04/14 06:49:34;;;;;;;;;;;;;;;;;;4894181;28;20004;-46
2022/04/14 06:52:01;;;;;;;;;;;;;;;;;;4898596;28;19920;-46
2022/04/14 06:54:27;;;;;;;;;;;;;;;;;;4876392;28;19993;-44
2022/04/14 06:56:52;;;;;;;;;;;;;;;;;;4913106;27;20004;-47
2022/04/14 06:59:17;;;;;;;;;;;;;;;;;;4903309;28;19923;-46
2022/04/14 07:01:42;;;;;;;;;;;;;;;;;;4873628;28;19924;-47
2022/04/14 07:04:07;;;;;;;;;;;;;;;;;;4839746;27;24128;-46
2022/04/14 07:06:33;;;;;;;;;;;;;;;;;;4853340;27;22000;-45
2022/04/14 07:08:58;;;;;;;;;;;;;;;;;;4836307;27;20112;-47
2022/04/14 07:11:23;;;;;;;;;;;;;;;;;;4803079;27;27328;-49
2022/04/14 07:13:48;;;;;;;;;;;;;;;;;;4793593;28;24863;-46
2022/04/14 07:16:13;;;;;;;;;;;;;;;;;;4790464;27;20523;-47
2022/04/14 07:18:40;;;;;;;;;;;;;;;;;;4785968;27;26279;-46
2022/04/14 07:21:05;;;;;;;;;;;;;;;;;;4775470;27;26914;-51
2022/04/14 07:23:30;;;;;;;;;;;;;;;;;;4772075;27;19920;-46
2022/04/14 07:25:56;;;;;;;;;;;;;;;;;;4783922;28;27116;-45
2022/04/14 07:28:21;;;;;;;;;;;;;;;;;;4785166;28;23687;-46
2022/04/14 07:30:46;;;;;;;;;;;;;;;;;;4802859;28;25004;-47
2022/04/14 07:33:11;;;;;;;;;;;;;;;;;;4800783;28;24318;-46
2022/04/14 07:35:36;;;;;;;;;;;;;;;;;;4814532;27;24522;-44
2022/04/14 07:38:01;;;;;;;;;;;;;;;;;;4818079;27;28619;-46
2022/04/14 07:40:26;;;;;;;;;;;;;;;;;;4805246;27;29661;-47
2022/04/14 07:42:52;;;;;;;;;;;;;;;;;;4809682;28;25963;-46
2022/04/14 07:45:17;;;;;;;;;;;;;;;;;;4805777;28;20938;-46
2022/04/14 07:47:42;;;;;;;;;;;;;;;;;;4809625;28;30981;-46
2022/04/14 07:50:07;;;;;;;;;;;;;;;;;;4790980;28;27041;-46
2022/04/14 07:52:32;;;;;;;;;;;;;;;;;;4799847;28;26909;-46
2022/04/14 07:54:57;;;;;;;;;;;;;;;;;;4800535;27;35306;-47
2022/04/14 07:57:23;;;;;;;;;;;;;;;;;;4795408;28;21199;-46
2022/04/14 07:59:48;;;;;;;;;;;;;;;;;;4792128;28;24554;-45
2022/04/14 08:02:13;;;;;;;;;;;;;;;;;;4818385;28;30705;-48
2022/04/14 08:04:38;;;;;;;;;;;;;;;;;;4795928;28;22892;-47
2022/04/14 08:07:03;;;;;;;;;;;;;;;;;;4779043;28;23623;-47
2022/04/14 08:09:29;;;;;;;;;;;;;;;;;;4771450;28;24734;-47
2022/04/14 08:11:54;;;;;;;;;;;;;;;;;;4772073;28;19920;-46
2022/04/14 08:14:19;;;;;;;;;;;;;;;;;;4770244;28;29346;-46
2022/04/14 08:16:44;;;;;;;;;;;;;;;;;;4746028;28;19920;-48
2022/04/14 08:19:09;;;;;;;;;;;;;;;;;;4815020;28;19919;-46
2022/04/14 08:21:34;;;;;;;;;;;;;;;;;;4804443;28;20522;-47
2022/04/14 08:24:01;;;;;;;;;;;;;;;;;;4791347;28;20062;-47
2022/04/14 08:26:26;;;;;;;;;;;;;;;;;;4773865;28;20019;-46
2022/04/14 08:28:53;;;;;;;;;;;;;;;;;;4611973;28;19963;-46
2022/04/14 08:31:18;;;;;;;;;;;;;;;;;;4545718;28;27617;-46
2022/04/14 08:36:27;;;;;;;;;;;;;;;;;;4717561;28;19950;-47
2022/04/14 08:38:54;;;;;;;;;;;;;;;;;;4770050;28;20570;-46
2022/04/14 08:41:19;;;;;;;;;;;;;;;;;;4796480;27;24344;-47
2022/04/14 08:43:44;;;;;;;;;;;;;;;;;;4759950;28;20447;-46
2022/04/14 08:46:09;;;;;;;;;;;;;;;;;;4779353;28;20861;-48
2022/04/14 08:48:35;;;;;;;;;;;;;;;;;;4769926;27;23880;-44
2022/04/14 08:51:00;;;;;;;;;;;;;;;;;;4762714;28;19999;-47
2022/04/14 08:53:25;;;;;;;;;;;;;;;;;;4732971;27;21880;-47
2022/04/14 08:55:50;;;;;;;;;;;;;;;;;;4764049;27;28124;-46
2022/04/14 08:58:16;;;;;;;;;;;;;;;;;;4693583;28;20038;-49
2022/04/14 09:00:41;;;;;;;;;;;;;;;;;;4719325;27;22791;-46
2022/04/14 09:03:06;;;;;;;;;;;;;;;;;;4731328;27;28168;-45
2022/04/14 09:05:31;;;;;;;;;;;;;;;;;;4732670;27;25037;-47
2022/04/14 09:07:56;;;;;;;;;;;;;;;;;;4669744;27;20614;-47
2022/04/14 09:10:21;;;;;;;;;;;;;;;;;;4736086;28;21977;-46
2022/04/14 09:12:47;;;;;;;;;;;;;;;;;;4751680;27;21938;-46
2022/04/14 09:15:12;;;;;;;;;;;;;;;;;;4670999;28;26704;-47
2022/04/14 09:17:37;;;;;;;;;;;;;;;;;;4629399;27;27569;-46
2022/04/14 09:20:04;;;;;;;;;;;;;;;;;;4644425;28;25629;-49
2022/04/14 09:22:29;;;;;;;;;;;;;;;;;;4782330;27;19928;-47
2022/04/14 09:24:55;;;;;;;;;;;;;;;;;;4787289;28;22747;-47
2022/04/14 09:27:20;;;;;;;;;;;;;;;;;;4804642;28;19973;-45
2022/04/14 09:29:45;;;;;;;;;;;;;;;;;;4822609;27;24821;-45
2022/04/14 09:32:10;;;;;;;;;;;;;;;;;;4816244;28;25291;-45
2022/04/14 09:34:35;;;;;;;;;;;;;;;;;;4810566;28;24753;-45
2022/04/14 09:37:00;;;;;;;;;;;;;;;;;;4813648;28;25565;-47
2022/04/14 09:39:25;;;;;;;;;;;;;;;;;;4802499;28;26128;-47
2022/04/14 09:41:50;;;;;;;;;;;;;;;;;;4808024;28;25498;-48
2022/04/14 09:44:15;;;;;;;;;;;;;;;;;;4815419;28;21188;-48
2022/04/14 09:46:41;;;;;;;;;;;;;;;;;;4829927;28;28272;-46
2022/04/14 09:49:08;;;;;;;;;;;;;;;;;;4816652;28;20004;-45
2022/04/14 09:51:35;;;;;;;;;;;;;;;;;;4790010;28;23890;-48
2022/04/14 09:54:00;;;;;;;;;;;;;;;;;;4802346;28;19927;-49
2022/04/14 09:56:25;;;;;;;;;;;;;;;;;;4810379;28;27169;-46
2022/04/14 09:58:52;;;;;;;;;;;;;;;;;;4785256;28;26642;-46
2022/04/14 10:01:17;;;;;;;;;;;;;;;;;;4794959;28;27223;-48
2022/04/14 10:03:42;;;;;;;;;;;;;;;;;;4780085;28;25693;-48
2022/04/14 10:06:07;;;;;;;;;;;;;;;;;;4784079;28;29646;-46
2022/04/14 10:08:32;;;;;;;;;;;;;;;;;;4776422;28;25497;-47
2022/04/14 10:10:57;;;;;;;;;;;;;;;;;;4763060;28;30202;-47
2022/04/14 10:13:23;;;;;;;;;;;;;;;;;;4768005;28;22080;-46
2022/04/14 10:15:48;;;;;;;;;;;;;;;;;;4781683;28;22109;-47
2022/04/14 10:18:13;;;;;;;;;;;;;;;;;;4808123;28;25463;-48
2022/04/14 10:20:38;;;;;;;;;;;;;;;;;;4815900;28;21837;-48
2022/04/14 10:23:04;;;;;;;;;;;;;;;;;;4810123;28;27058;-46
2022/04/14 10:25:29;;;;;;;;;;;;;;;;;;4813911;28;25205;-50
2022/04/14 10:27:54;;;;;;;;;;;;;;;;;;4832244;28;19924;-47
2022/04/14 10:30:20;;;;;;;;;;;;;;;;;;4811382;28;20060;-44
2022/04/14 10:32:45;;;;;;;;;;;;;;;;;;4806379;28;24882;-46
2022/04/14 10:35:11;;;;;;;;;;;;;;;;;;4798815;22;28412;-46
2022/04/14 10:37:36;;;;;;;;;;;;;;;;;;4754351;28;30241;-47
2022/04/14 10:40:01;;;;;;;;;;;;;;;;;;4743987;28;29113;-45
2022/04/14 10:42:26;;;;;;;;;;;;;;;;;;4763432;28;21074;-46
2022/04/14 10:44:51;;;;;;;;;;;;;;;;;;4782515;28;24480;-47
2022/04/14 10:47:16;;;;;;;;;;;;;;;;;;4802165;28;32612;-47
2022/04/14 10:49:41;;;;;;;;;;;;;;;;;;4804067;28;25944;-45
2022/04/14 10:52:07;;;;;;;;;;;;;;;;;;4813839;28;23322;-48
2022/04/14 10:54:32;;;;;;;;;;;;;;;;;;4789949;28;23853;-46
2022/04/14 10:56:57;;;;;;;;;;;;;;;;;;4786771;28;25572;-46
2022/04/14 10:59:22;;;;;;;;;;;;;;;;;;4798852;28;24893;-47
2022/04/14 11:01:48;;;;;;;;;;;;;;;;;;4797177;28;19975;-47
2022/04/14 11:04:13;;;;;;;;;;;;;;;;;;4792710;28;19920;-47
2022/04/14 11:06:39;;;;;;;;;;;;;;;;;;4780116;28;20186;-47
2022/04/14 11:09:04;;;;;;;;;;;;;;;;;;4787608;28;19924;-46
2022/04/14 11:11:30;;;;;;;;;;;;;;;;;;4818973;28;20583;-47
2022/04/14 11:13:58;;;;;;;;;;;;;;;;;;4801055;28;20546;-46
2022/04/14 11:16:23;;;;;;;;;;;;;;;;;;4812268;28;19921;-48
2022/04/14 11:18:48;;;;;;;;;;;;;;;;;;4801474;28;19928;-46
2022/04/14 11:21:13;;;;;;;;;;;;;;;;;;4813305;28;19931;-46
2022/04/14 11:23:38;;;;;;;;;;;;;;;;;;4810835;28;19939;-46
2022/04/14 11:26:04;;;;;;;;;;;;;;;;;;4802166;28;25188;-47
2022/04/14 11:28:30;;;;;;;;;;;;;;;;;;4774516;28;26185;-47
2022/04/14 11:30:55;;;;;;;;;;;;;;;;;;4750876;28;19921;-48
2022/04/14 11:33:20;;;;;;;;;;;;;;;;;;4731961;28;19921;-47
2022/04/14 11:35:45;;;;;;;;;;;;;;;;;;4756010;28;21899;-45
2022/04/14 11:38:12;;;;;;;;;;;;;;;;;;4801858;28;19928;-46
2022/04/14 11:40:37;;;;;;;;;;;;;;;;;;4852583;28;19928;-46
2022/04/14 11:43:03;;;;;;;;;;;;;;;;;;4848491;28;23853;-48
2022/04/14 11:45:28;;;;;;;;;;;;;;;;;;4854804;28;22006;-47
2022/04/14 11:48:03;;;;;;;;;;;;;;;;;;4854539;28;21887;-47
2022/04/14 11:50:28;;;;;;;;;;;;;;;;;;4827340;28;19928;-47
2022/04/14 11:52:53;;;;;;;;;;;;;;;;;;4836488;28;20055;-47
2022/04/14 11:55:19;;;;;;;;;;;;;;;;;;4829055;28;19921;-47
2022/04/14 11:57:44;;;;;;;;;;;;;;;;;;4827787;28;21037;-47
2022/04/14 12:00:10;;;;;;;;;;;;;;;;;;4813520;28;19921;-46
2022/04/14 12:02:35;;;;;;;;;;;;;;;;;;4818066;28;22428;-46
2022/04/14 12:05:00;;;;;;;;;;;;;;;;;;4813119;28;19920;-46
2022/04/14 12:07:25;;;;;;;;;;;;;;;;;;4824211;28;27019;-45
2022/04/14 12:09:50;;;;;;;;;;;;;;;;;;4835874;28;23937;-46
2022/04/14 12:12:16;;;;;;;;;;;;;;;;;;4838460;28;19928;-47
2022/04/14 12:14:41;;;;;;;;;;;;;;;;;;4822723;28;19916;-47
2022/04/14 12:17:06;;;;;;;;;;;;;;;;;;4805112;28;21336;-49
2022/04/14 12:19:31;;;;;;;;;;;;;;;;;;4749612;28;19927;-47
2022/04/14 12:21:56;;;;;;;;;;;;;;;;;;4732698;28;20063;-47
2022/04/14 12:24:23;;;;;;;;;;;;;;;;;;4745653;28;20936;-49
2022/04/14 12:26:48;;;;;;;;;;;;;;;;;;4645634;28;20865;-46
2022/04/14 12:29:13;;;;;;;;;;;;;;;;;;4691348;28;19982;-46
2022/04/14 12:31:38;;;;;;;;;;;;;;;;;;4779940;28;20031;-46
2022/04/14 12:34:03;;;;;;;;;;;;;;;;;;4773404;28;20701;-47
2022/04/14 12:36:28;;;;;;;;;;;;;;;;;;4785837;28;19932;-46
2022/04/14 12:38:54;;;;;;;;;;;;;;;;;;4816877;28;20938;-49
2022/04/14 12:41:19;;;;;;;;;;;;;;;;;;4825674;28;20035;-48
2022/04/14 12:43:47;;;;;;;;;;;;;;;;;;4808967;28;21119;-45
2022/04/14 12:46:12;;;;;;;;;;;;;;;;;;4767978;28;21977;-48
2022/04/14 12:48:37;;;;;;;;;;;;;;;;;;4812697;28;19964;-46
2022/04/14 12:51:02;;;;;;;;;;;;;;;;;;4832982;28;20777;-47
2022/04/14 12:53:27;;;;;;;;;;;;;;;;;;4833271;28;20540;-46
2022/04/14 12:55:53;;;;;;;;;;;;;;;;;;4817253;28;20731;-45
2022/04/14 12:58:18;;;;;;;;;;;;;;;;;;4805790;28;21077;-46
2022/04/14 13:00:43;;;;;;;;;;;;;;;;;;4789740;28;20892;-46
2022/04/14 13:03:14;;;;;;;;;;;;;;;;;;4808041;28;20055;-46
2022/04/14 13:05:39;;;;;;;;;;;;;;;;;;4813457;28;21629;-46
2022/04/14 13:08:04;;;;;;;;;;;;;;;;;;4806315;28;19921;-45
2022/04/14 13:10:29;;;;;;;;;;;;;;;;;;4768585;28;19921;-46
2022/04/14 13:12:55;;;;;;;;;;;;;;;;;;4658875;28;22030;-45
2022/04/14 13:15:20;;;;;;;;;;;;;;;;;;4709542;28;20038;-46
2022/04/14 13:17:45;;;;;;;;;;;;;;;;;;4774589;28;20051;-44
2022/04/14 13:20:10;;;;;;;;;;;;;;;;;;4823224;28;19921;-47
2022/04/14 13:22:35;;;;;;;;;;;;;;;;;;4849262;28;19979;-46
2022/04/14 13:25:00;;;;;;;;;;;;;;;;;;4858862;28;19971;-46
2022/04/14 13:27:25;;;;;;;;;;;;;;;;;;4903243;28;20114;-46
2022/04/14 13:29:50;;;;;;;;;;;;;;;;;;4911384;28;19944;-48
2022/04/14 13:32:15;;;;;;;;;;;;;;;;;;4899236;28;19924;-46
2022/04/14 13:34:41;;;;;;;;;;;;;;;;;;4919861;28;20444;-47
2022/04/14 13:37:06;;;;;;;;;;;;;;;;;;4911694;28;19935;-46
2022/04/14 13:39:31;;;;;;;;;;;;;;;;;;4914106;28;21040;-47
2022/04/14 13:41:56;;;;;;;;;;;;;;;;;;4920977;28;19925;-49
2022/04/14 13:44:21;;;;;;;;;;;;;;;;;;4924477;28;19921;-46
2022/04/14 13:46:46;;;;;;;;;;;;;;;;;;4951946;28;20126;-45
2022/04/14 13:49:12;;;;;;;;;;;;;;;;;;4943704;28;19921;-47
2022/04/14 13:51:37;;;;;;;;;;;;;;;;;;4939719;28;19927;-47
2022/04/14 13:54:03;;;;;;;;;;;;;;;;;;4906950;28;21173;-48
2022/04/14 13:56:28;;;;;;;;;;;;;;;;;;4899863;28;20669;-46
2022/04/14 13:58:53;;;;;;;;;;;;;;;;;;4890476;28;26189;-48
2022/04/14 14:01:18;;;;;;;;;;;;;;;;;;4917315;28;19933;-47
2022/04/14 14:03:44;;;;;;;;;;;;;;;;;;4899856;28;19921;-46
2022/04/14 14:06:09;;;;;;;;;;;;;;;;;;4954832;28;20601;-48
2022/04/14 14:08:34;;;;;;;;;;;;;;;;;;4974253;28;20052;-47
2022/04/14 14:10:59;;;;;;;;;;;;;;;;;;4997388;28;19928;-47
2022/04/14 14:13:24;;;;;;;;;;;;;;;;;;5005377;28;19927;-47
2022/04/14 14:15:49;;;;;;;;;;;;;;;;;;5013821;28;19921;-48
2022/04/14 14:18:15;;;;;;;;;;;;;;;;;;5014028;28;19953;-47
2022/04/14 14:20:40;;;;;;;;;;;;;;;;;;5030902;28;20332;-47
2022/04/14 14:23:05;;;;;;;;;;;;;;;;;;5027892;28;19925;-46
2022/04/14 14:25:31;;;;;;;;;;;;;;;;;;5022964;28;19978;-47
2022/04/14 14:27:57;;;;;;;;;;;;;;;;;;5039677;28;19921;-47
2022/04/14 14:30:22;;;;;;;;;;;;;;;;;;5039274;28;22733;-47
2022/04/14 14:32:47;;;;;;;;;;;;;;;;;;5038535;28;19919;-47
2022/04/14 14:35:15;;;;;;;;;;;;;;;;;;5040379;28;19912;-46
2022/04/14 14:37:40;;;;;;;;;;;;;;;;;;5037199;28;19917;-46
2022/04/14 14:40:07;;;;;;;;;;;;;;;;;;5039784;28;20297;-47
2022/04/14 14:42:32;;;;;;;;;;;;;;;;;;5040376;28;19925;-47
2022/04/14 14:44:57;;;;;;;;;;;;;;;;;;5036100;28;19958;-45
2022/04/14 14:47:23;;;;;;;;;;;;;;;;;;5038375;28;20016;-44
2022/04/14 14:49:48;;;;;;;;;;;;;;;;;;5002283;28;20333;-47
2022/04/14 14:52:13;;;;;;;;;;;;;;;;;;5012630;28;20287;-47
2022/04/14 14:54:38;;;;;;;;;;;;;;;;;;5007488;28;19927;-45
2022/04/14 14:57:03;;;;;;;;;;;;;;;;;;5021008;28;19932;-46
2022/04/14 14:59:29;;;;;;;;;;;;;;;;;;5033373;28;20000;-46
2022/04/14 15:01:54;;;;;;;;;;;;;;;;;;5028850;28;19925;-46
2022/04/14 15:04:19;;;;;;;;;;;;;;;;;;5043362;28;19924;-47
2022/04/14 15:06:45;;;;;;;;;;;;;;;;;;5049809;28;19924;-46
2022/04/14 15:09:10;;;;;;;;;;;;;;;;;;5052097;28;19923;-45
2022/04/14 15:11:36;;;;;;;;;;;;;;;;;;5054459;28;19924;-47
2022/04/14 15:14:02;;;;;;;;;;;;;;;;;;5049556;28;20406;-46
2022/04/14 15:16:27;;;;;;;;;;;;;;;;;;5047875;28;20379;-48
2022/04/14 15:18:54;;;;;;;;;;;;;;;;;;5052201;28;19920;-46
2022/04/14 15:21:19;;;;;;;;;;;;;;;;;;5055511;28;20371;-45
2022/04/14 15:23:44;;;;;;;;;;;;;;;;;;5054534;28;19966;-46
2022/04/14 15:26:09;;;;;;;;;;;;;;;;;;5054346;28;19944;-46
2022/04/14 15:28:35;;;;;;;;;;;;;;;;;;5054069;28;19917;-45
2022/04/14 15:31:00;;;;;;;;;;;;;;;;;;5052114;28;19912;-46
2022/04/14 15:33:27;;;;;;;;;;;;;;;;;;5052539;28;19912;-46
2022/04/14 15:35:52;;;;;;;;;;;;;;;;;;5051955;28;19956;-47
2022/04/14 15:38:17;;;;;;;;;;;;;;;;;;5052006;28;20406;-47
2022/04/14 15:40:42;;;;;;;;;;;;;;;;;;5053610;28;20443;-48
2022/04/14 15:43:07;;;;;;;;;;;;;;;;;;5054408;28;20000;-47
2022/04/14 15:45:32;;;;;;;;;;;;;;;;;;5052639;28;19920;-47
2022/04/14 15:47:58;;;;;;;;;;;;;;;;;;5053672;28;19917;-47
2022/04/14 15:50:23;;;;;;;;;;;;;;;;;;5053645;28;19958;-46
2022/04/14 15:52:48;;;;;;;;;;;;;;;;;;5052184;28;19951;-46
2022/04/14 15:55:13;;;;;;;;;;;;;;;;;;5054267;28;19963;-49
2022/04/14 15:57:38;;;;;;;;;;;;;;;;;;5053279;28;19913;-48
2022/04/14 16:00:04;;;;;;;;;;;;;;;;;;5055084;28;19912;-48
2022/04/14 16:02:30;;;;;;;;;;;;;;;;;;5054146;28;20371;-46
2022/04/14 16:04:55;;;;;;;;;;;;;;;;;;5053391;28;19913;-45
2022/04/14 16:07:21;;;;;;;;;;;;;;;;;;5053449;28;19948;-44
2022/04/14 16:12:30;;;;;;;;;;;;;;;;;;5053365;28;20318;-44
2022/04/14 16:14:55;;;;;;;;;;;;;;;;;;5054630;28;19909;-44
2022/04/14 16:17:20;;;;;;;;;;;;;;;;;;5054781;28;19913;-44
2022/04/14 16:19:45;;;;;;;;;;;;;;;;;;5054482;28;20000;-44
2022/04/14 16:22:10;;;;;;;;;;;;;;;;;;5054351;28;19917;-44
2022/04/14 16:24:35;;;;;;;;;;;;;;;;;;5054152;28;20322;-43
2022/04/14 16:27:00;;;;;;;;;;;;;;;;;;5054185;28;19915;-45
2022/04/14 16:29:25;;;;;;;;;;;;;;;;;;5054508;28;19971;-43
2022/04/14 16:31:54;;;;;;;;;;;;;;;;;;5054200;28;19962;-43
2022/04/14 16:34:19;;;;;;;;;;;;;;;;;;5054735;28;19913;-44
2022/04/14 16:36:44;;;;;;;;;;;;;;;;;;5036337;28;19928;-43